createdAt,value
2016-05-12T00:00:21.898Z,1003.8
2016-05-12T00:01:21.948Z,1003.78
2016-05-12T00:02:21.981Z,1003.8
2016-05-12T00:03:22.016Z,1003.76
2016-05-12T00:04:22.066Z,1003.75
2016-05-12T00:05:22.099Z,1003.76
2016-05-12T00:06:22.133Z,1003.7
2016-05-12T00:07:22.182Z,1003.73
2016-05-12T00:08:22.216Z,1003.73
2016-05-12T00:09:22.266Z,1003.7
2016-05-12T00:10:22.315Z,1003.69
2016-05-12T00:11:22.335Z,1003.63
2016-05-12T00:12:22.383Z,1003.67
2016-05-12T00:13:22.418Z,1003.7
2016-05-12T00:14:22.452Z,1003.76
2016-05-12T00:15:22.501Z,1003.66
2016-05-12T00:16:22.535Z,1003.71
2016-05-12T00:17:22.568Z,1003.69
2016-05-12T00:18:22.618Z,1003.66
2016-05-12T00:19:22.652Z,1003.63
2016-05-12T00:20:22.702Z,1003.61
2016-05-12T00:21:22.736Z,1003.65
2016-05-12T00:22:22.770Z,1003.64
2016-05-12T00:23:22.819Z,1003.62
2016-05-12T00:24:22.854Z,1003.62
2016-05-12T00:25:22.888Z,1003.68
2016-05-12T00:26:22.937Z,1003.62
2016-05-12T00:27:22.970Z,1003.61
2016-05-12T00:28:23.005Z,1003.61
2016-05-12T00:29:23.053Z,1003.64
2016-05-12T00:30:23.088Z,1003.58
2016-05-12T00:31:23.122Z,1003.61
2016-05-12T00:32:23.172Z,1003.58
2016-05-12T00:33:23.206Z,1003.56
2016-05-12T00:34:23.255Z,1003.56
2016-05-12T00:35:23.289Z,1003.58
2016-05-12T00:36:23.323Z,1003.56
2016-05-12T00:37:23.372Z,1003.58
2016-05-12T00:38:23.407Z,1003.61
2016-05-12T00:39:23.441Z,1003.59
2016-05-12T00:40:23.491Z,1003.55
2016-05-12T00:41:23.524Z,1003.56
2016-05-12T00:42:23.574Z,1003.59
2016-05-12T00:43:23.623Z,1003.61
2016-05-12T00:44:23.641Z,1003.61
2016-05-12T00:45:23.690Z,1003.56
2016-05-12T00:46:23.724Z,1003.56
2016-05-12T00:47:23.760Z,1003.55
2016-05-12T00:48:23.809Z,1003.54
2016-05-12T00:49:23.858Z,1003.59
2016-05-12T00:50:23.876Z,1003.57
2016-05-12T00:51:23.926Z,1003.57
2016-05-12T00:52:23.959Z,1003.56
2016-05-12T00:53:24.009Z,1003.6
2016-05-12T00:54:24.043Z,1003.54
2016-05-12T00:55:24.078Z,1003.55
2016-05-12T00:56:24.126Z,1003.55
2016-05-12T00:57:24.161Z,1003.48
2016-05-12T00:58:24.195Z,1003.56
2016-05-12T00:59:24.245Z,1003.47
2016-05-12T01:00:24.278Z,1003.5
2016-05-12T01:01:24.327Z,1003.45
2016-05-12T01:02:24.362Z,1003.47
2016-05-12T01:03:24.396Z,1003.47
2016-05-12T01:04:24.445Z,1003.45
2016-05-12T01:05:24.479Z,1003.45
2016-05-12T01:06:24.528Z,1003.43
2016-05-12T01:07:24.563Z,1003.43
2016-05-12T01:08:24.597Z,1003.41
2016-05-12T01:09:24.647Z,1003.4
2016-05-12T01:10:24.680Z,1003.44
2016-05-12T01:11:24.714Z,1003.39
2016-05-12T01:12:24.763Z,1003.37
2016-05-12T01:13:24.797Z,1003.41
2016-05-12T01:14:24.832Z,1003.39
2016-05-12T01:15:24.882Z,1003.43
2016-05-12T01:16:24.916Z,1003.43
2016-05-12T01:17:24.965Z,1003.39
2016-05-12T01:18:24.998Z,1003.3
2016-05-12T01:19:25.032Z,1003.39
2016-05-12T01:20:25.082Z,1003.36
2016-05-12T01:21:25.115Z,1003.35
2016-05-12T01:22:25.151Z,1003.39
2016-05-12T01:23:25.199Z,1003.42
2016-05-12T01:24:25.234Z,1003.4
2016-05-12T01:25:25.268Z,1003.39
2016-05-12T01:26:25.317Z,1003.33
2016-05-12T01:27:25.351Z,1003.37
2016-05-12T01:28:25.400Z,1003.35
2016-05-12T01:29:25.434Z,1003.3
2016-05-12T01:30:25.468Z,1003.38
2016-05-12T01:31:25.518Z,1003.4
2016-05-12T01:32:25.552Z,1003.37
2016-05-12T01:33:25.586Z,1003.37
2016-05-12T01:34:25.635Z,1003.35
2016-05-12T01:35:25.669Z,1003.36
2016-05-12T01:36:25.703Z,1003.31
2016-05-12T01:37:25.753Z,1003.35
2016-05-12T01:38:25.787Z,1003.35
2016-05-12T01:39:25.836Z,1003.35
2016-05-12T01:40:25.870Z,1003.29
2016-05-12T01:41:25.919Z,1003.33
2016-05-12T01:42:25.955Z,1003.28
2016-05-12T01:43:26.003Z,1003.3
2016-05-12T01:44:26.021Z,1003.26
2016-05-12T01:45:26.071Z,1003.3
2016-05-12T01:46:26.105Z,1003.27
2016-05-12T01:47:26.139Z,1003.29
2016-05-12T01:48:26.188Z,1003.32
2016-05-12T01:49:26.223Z,1003.32
2016-05-12T01:50:26.272Z,1003.34
2016-05-12T01:51:26.306Z,1003.32
2016-05-12T01:52:26.340Z,1003.26
2016-05-12T01:53:26.390Z,1003.28
2016-05-12T01:54:26.423Z,1003.29
2016-05-12T01:55:26.457Z,1003.26
2016-05-12T01:56:26.507Z,1003.27
2016-05-12T01:57:26.541Z,1003.33
2016-05-12T01:58:26.575Z,1003.26
2016-05-12T01:59:26.625Z,1003.31
2016-05-12T02:00:26.659Z,1003.29
2016-05-12T02:01:26.708Z,1003.29
2016-05-12T02:02:26.741Z,1003.3
2016-05-12T02:03:26.775Z,1003.31
2016-05-12T02:04:26.826Z,1003.29
2016-05-12T02:05:26.859Z,1003.24
2016-05-12T02:06:26.908Z,1003.19
2016-05-12T02:07:26.942Z,1003.24
2016-05-12T02:08:26.977Z,1003.21
2016-05-12T02:09:27.027Z,1003.22
2016-05-12T02:10:27.060Z,1003.19
2016-05-12T02:11:27.094Z,1003.22
2016-05-12T02:12:27.144Z,1003.19
2016-05-12T02:13:27.177Z,1003.17
2016-05-12T02:14:27.211Z,1003.18
2016-05-12T02:15:27.261Z,1003.13
2016-05-12T02:16:27.295Z,1003.21
2016-05-12T02:17:27.330Z,1003.12
2016-05-12T02:18:27.379Z,1003.12
2016-05-12T02:19:27.412Z,1003.17
2016-05-12T02:20:27.447Z,1003.1
2016-05-12T02:21:27.496Z,1003.1
2016-05-12T02:22:27.530Z,1003.11
2016-05-12T02:23:27.579Z,1003.09
2016-05-12T02:24:27.613Z,1003.09
2016-05-12T02:25:27.648Z,1003.05
2016-05-12T02:26:27.698Z,1003.05
2016-05-12T02:27:27.731Z,1003.07
2016-05-12T02:28:27.781Z,1003.07
2016-05-12T02:29:27.814Z,1003.02
2016-05-12T02:30:27.848Z,1003.02
2016-05-12T02:31:27.898Z,1003.01
2016-05-12T02:32:27.932Z,1002.97
2016-05-12T02:33:27.967Z,1002.99
2016-05-12T02:34:28.047Z,1002.98
2016-05-12T02:35:28.049Z,1003
2016-05-12T02:36:28.100Z,1002.93
2016-05-12T02:37:28.133Z,1002.97
2016-05-12T02:38:28.166Z,1002.91
2016-05-12T02:39:28.217Z,1002.92
2016-05-12T02:40:28.250Z,1002.92
2016-05-12T02:41:28.284Z,1002.98
2016-05-12T02:42:28.334Z,1002.97
2016-05-12T02:43:28.368Z,1002.98
2016-05-12T02:44:28.402Z,1002.93
2016-05-12T02:45:28.451Z,1002.9
2016-05-12T02:46:28.485Z,1002.9
2016-05-12T02:47:28.519Z,1002.9
2016-05-12T02:48:28.569Z,1002.91
2016-05-12T02:49:28.602Z,1002.88
2016-05-12T02:50:28.637Z,1002.94
2016-05-12T02:51:28.686Z,1002.93
2016-05-12T02:52:28.721Z,1002.9
2016-05-12T02:53:28.754Z,1002.89
2016-05-12T02:54:28.804Z,1002.89
2016-05-12T02:55:28.837Z,1002.87
2016-05-12T02:56:28.871Z,1002.93
2016-05-12T02:57:28.920Z,1002.91
2016-05-12T02:58:28.954Z,1002.93
2016-05-12T02:59:28.990Z,1002.93
2016-05-12T03:00:29.039Z,1002.95
2016-05-12T03:01:29.073Z,1002.91
2016-05-12T03:02:29.122Z,1002.93
2016-05-12T03:03:29.156Z,1002.92
2016-05-12T03:04:29.189Z,1002.89
2016-05-12T03:05:29.240Z,1002.89
2016-05-12T03:06:29.273Z,1002.88
2016-05-12T03:07:29.323Z,1002.86
2016-05-12T03:08:29.356Z,1002.81
2016-05-12T03:09:29.391Z,1002.82
2016-05-12T03:10:29.425Z,1002.79
2016-05-12T03:11:29.475Z,1002.8
2016-05-12T03:12:29.524Z,1002.79
2016-05-12T03:13:29.558Z,1002.75
2016-05-12T03:14:29.592Z,1002.74
2016-05-12T03:15:29.625Z,1002.74
2016-05-12T03:16:29.675Z,1002.78
2016-05-12T03:17:29.709Z,1002.75
2016-05-12T03:18:29.744Z,1002.78
2016-05-12T03:19:29.793Z,1002.79
2016-05-12T03:20:29.827Z,1002.77
2016-05-12T03:21:29.861Z,1002.79
2016-05-12T03:22:29.910Z,1002.79
2016-05-12T03:23:29.943Z,1002.75
2016-05-12T03:24:29.993Z,1002.75
2016-05-12T03:25:30.027Z,1002.73
2016-05-12T03:26:30.062Z,1002.73
2016-05-12T03:27:30.111Z,1002.75
2016-05-12T03:28:30.145Z,1002.72
2016-05-12T03:29:30.179Z,1002.74
2016-05-12T03:30:30.228Z,1002.72
2016-05-12T03:31:30.262Z,1002.74
2016-05-12T03:32:30.312Z,1002.73
2016-05-12T03:33:30.346Z,1002.71
2016-05-12T03:34:30.380Z,1002.73
2016-05-12T03:35:30.414Z,1002.71
2016-05-12T03:36:30.463Z,1002.72
2016-05-12T03:37:30.497Z,1002.7
2016-05-12T03:38:30.531Z,1002.68
2016-05-12T03:39:30.581Z,1002.65
2016-05-12T03:40:30.615Z,1002.72
2016-05-12T03:41:30.664Z,1002.71
2016-05-12T03:42:30.697Z,1002.72
2016-05-12T03:43:30.732Z,1002.75
2016-05-12T03:44:30.782Z,1002.7
2016-05-12T03:45:30.816Z,1002.67
2016-05-12T03:46:31.146Z,1002.73
2016-05-12T03:47:30.899Z,1002.71
2016-05-12T03:48:30.933Z,1002.74
2016-05-12T03:49:30.967Z,1002.74
2016-05-12T03:50:31.016Z,1002.72
2016-05-12T03:51:31.051Z,1002.7
2016-05-12T03:52:31.100Z,1002.63
2016-05-12T03:53:31.135Z,1002.66
2016-05-12T03:54:31.168Z,1002.71
2016-05-12T03:55:31.218Z,1002.69
2016-05-12T03:56:31.251Z,1002.65
2016-05-12T03:57:31.285Z,1002.58
2016-05-12T03:58:31.335Z,1002.61
2016-05-12T03:59:31.369Z,1002.6
2016-05-12T04:00:31.404Z,1002.58
2016-05-12T04:01:31.453Z,1002.6
2016-05-12T04:02:31.487Z,1002.58
2016-05-12T04:03:31.536Z,1002.57
2016-05-12T04:04:31.570Z,1002.57
2016-05-12T04:05:31.604Z,1002.59
2016-05-12T04:06:31.638Z,1002.59
2016-05-12T04:07:31.687Z,1002.62
2016-05-12T04:08:31.722Z,1002.61
2016-05-12T04:09:31.770Z,1002.58
2016-05-12T04:10:31.805Z,1002.59
2016-05-12T04:11:31.839Z,1002.58
2016-05-12T04:12:31.889Z,1002.59
2016-05-12T04:13:31.922Z,1002.6
2016-05-12T04:14:31.972Z,1002.56
2016-05-12T04:15:32.005Z,1002.58
2016-05-12T04:16:32.039Z,1002.54
2016-05-12T04:17:32.089Z,1002.59
2016-05-12T04:18:32.123Z,1002.59
2016-05-12T04:19:32.158Z,1002.57
2016-05-12T04:20:32.207Z,1002.54
2016-05-12T04:21:32.241Z,1002.52
2016-05-12T04:22:32.290Z,1002.54
2016-05-12T04:23:32.324Z,1002.59
2016-05-12T04:24:32.357Z,1002.54
2016-05-12T04:25:32.392Z,1002.55
2016-05-12T04:26:32.441Z,1002.53
2016-05-12T04:27:32.476Z,1002.55
2016-05-12T04:28:32.525Z,1002.52
2016-05-12T04:29:32.559Z,1002.54
2016-05-12T04:30:32.593Z,1002.53
2016-05-12T04:31:32.643Z,1002.53
2016-05-12T04:32:32.676Z,1002.54
2016-05-12T04:33:32.710Z,1002.47
2016-05-12T04:34:32.760Z,1002.53
2016-05-12T04:35:32.794Z,1002.54
2016-05-12T04:36:32.843Z,1002.54
2016-05-12T04:37:32.877Z,1002.49
2016-05-12T04:38:32.912Z,1002.55
2016-05-12T04:39:32.962Z,1002.54
2016-05-12T04:40:32.995Z,1002.52
2016-05-12T04:41:33.028Z,1002.46
2016-05-12T04:42:33.078Z,1002.5
2016-05-12T04:43:33.111Z,1002.53
2016-05-12T04:44:33.147Z,1002.55
2016-05-12T04:45:33.197Z,1002.51
2016-05-12T04:46:33.230Z,1002.54
2016-05-12T04:47:33.264Z,1002.54
2016-05-12T04:48:33.313Z,1002.53
2016-05-12T04:49:33.347Z,1002.55
2016-05-12T04:50:33.396Z,1002.58
2016-05-12T04:51:33.431Z,1002.61
2016-05-12T04:52:33.465Z,1002.55
2016-05-12T04:53:33.514Z,1002.6
2016-05-12T04:54:33.548Z,1002.61
2016-05-12T04:55:33.598Z,1002.58
2016-05-12T04:56:33.632Z,1002.62
2016-05-12T04:57:33.666Z,1002.61
2016-05-12T04:58:33.715Z,1002.61
2016-05-12T04:59:33.749Z,1002.64
2016-05-12T05:00:33.799Z,1002.61
2016-05-12T05:01:33.989Z,1002.62
2016-05-12T05:02:33.867Z,1002.62
2016-05-12T05:03:33.915Z,1002.61
2016-05-12T05:04:33.951Z,1002.61
2016-05-12T05:05:33.984Z,1002.6
2016-05-12T05:06:34.018Z,1002.58
2016-05-12T05:07:34.068Z,1002.63
2016-05-12T05:08:34.101Z,1002.64
2016-05-12T05:09:34.136Z,1002.6
2016-05-12T05:10:34.184Z,1002.57
2016-05-12T05:11:34.219Z,1002.54
2016-05-12T05:12:34.269Z,1002.61
2016-05-12T05:13:34.303Z,1002.61
2016-05-12T05:14:34.336Z,1002.59
2016-05-12T05:15:34.386Z,1002.6
2016-05-12T05:16:34.560Z,1002.62
2016-05-12T05:17:34.453Z,1002.59
2016-05-12T05:18:34.503Z,1002.57
2016-05-12T05:19:34.538Z,1002.56
2016-05-12T05:20:34.571Z,1002.56
2016-05-12T05:21:34.621Z,1002.62
2016-05-12T05:22:34.671Z,1002.59
2016-05-12T05:23:34.704Z,1002.56
2016-05-12T05:24:34.739Z,1002.57
2016-05-12T05:25:34.772Z,1002.65
2016-05-12T05:26:34.822Z,1002.58
2016-05-12T05:27:34.855Z,1002.6
2016-05-12T05:28:34.890Z,1002.58
2016-05-12T05:29:34.939Z,1002.59
2016-05-12T05:30:34.973Z,1002.54
2016-05-12T05:31:35.038Z,1002.61
2016-05-12T05:32:35.057Z,1002.57
2016-05-12T05:33:35.090Z,1002.59
2016-05-12T05:34:35.140Z,1002.62
2016-05-12T05:35:35.174Z,1002.61
2016-05-12T05:36:35.208Z,1002.59
2016-05-12T05:37:35.257Z,1002.6
2016-05-12T05:38:35.291Z,1002.63
2016-05-12T05:39:35.326Z,1002.64
2016-05-12T05:40:35.376Z,1002.64
2016-05-12T05:41:35.409Z,1002.64
2016-05-12T05:42:35.459Z,1002.72
2016-05-12T05:43:35.492Z,1002.61
2016-05-12T05:44:35.525Z,1002.6
2016-05-12T05:45:35.576Z,1002.63
2016-05-12T05:46:35.610Z,1002.6
2016-05-12T05:47:35.644Z,1002.67
2016-05-12T05:48:35.694Z,1002.6
2016-05-12T05:49:35.727Z,1002.56
2016-05-12T05:50:35.777Z,1002.55
2016-05-12T05:51:35.811Z,1002.58
2016-05-12T05:52:35.844Z,1002.57
2016-05-12T05:53:35.894Z,1002.56
2016-05-12T05:54:35.927Z,1002.57
2016-05-12T05:55:35.962Z,1002.57
2016-05-12T05:56:36.028Z,1002.55
2016-05-12T05:57:36.046Z,1002.56
2016-05-12T05:58:36.079Z,1002.6
2016-05-12T05:59:36.129Z,1002.56
2016-05-12T06:00:36.163Z,1002.61
2016-05-12T06:01:36.635Z,1002.58
2016-05-12T06:02:36.246Z,1002.55
2016-05-12T06:03:36.421Z,1002.53
2016-05-12T06:04:36.330Z,1002.53
2016-05-12T06:05:36.365Z,1002.54
2016-05-12T06:06:36.414Z,1002.5
2016-05-12T06:07:36.448Z,1002.53
2016-05-12T06:08:36.481Z,1002.51
2016-05-12T06:09:36.531Z,1002.56
2016-05-12T06:10:36.564Z,1002.54
2016-05-12T06:11:36.599Z,1002.49
2016-05-12T06:12:36.648Z,1002.49
2016-05-12T06:13:36.683Z,1002.48
2016-05-12T06:14:36.716Z,1002.46
2016-05-12T06:15:36.766Z,1002.44
2016-05-12T06:16:36.800Z,1002.38
2016-05-12T06:17:36.834Z,1002.4
2016-05-12T06:18:36.883Z,1002.4
2016-05-12T06:19:36.917Z,1002.33
2016-05-12T06:20:36.952Z,1002.36
2016-05-12T06:21:37.000Z,1002.29
2016-05-12T06:22:37.035Z,1002.37
2016-05-12T06:23:37.069Z,1002.32
2016-05-12T06:24:37.118Z,1002.31
2016-05-12T06:25:37.152Z,1002.27
2016-05-12T06:26:37.186Z,1002.28
2016-05-12T06:27:37.236Z,1002.29
2016-05-12T06:28:37.269Z,1002.24
2016-05-12T06:29:37.304Z,1002.24
2016-05-12T06:30:37.354Z,1002.29
2016-05-12T06:31:37.387Z,1002.25
2016-05-12T06:32:37.421Z,1002.24
2016-05-12T06:33:37.454Z,1002.2
2016-05-12T06:34:37.505Z,1002.24
2016-05-12T06:35:37.538Z,1002.24
2016-05-12T06:36:37.572Z,1002.16
2016-05-12T06:37:37.623Z,1002.19
2016-05-12T06:38:37.656Z,1002.26
2016-05-12T06:39:37.690Z,1002.25
2016-05-12T06:40:37.740Z,1002.24
2016-05-12T06:41:37.774Z,1002.24
2016-05-12T06:42:37.823Z,1002.29
2016-05-12T06:43:37.857Z,1002.27
2016-05-12T06:44:37.891Z,1002.32
2016-05-12T06:45:37.925Z,1002.24
2016-05-12T06:46:38.459Z,1002.26
2016-05-12T06:47:38.008Z,1002.24
2016-05-12T06:48:38.042Z,1002.26
2016-05-12T06:49:38.075Z,1002.19
2016-05-12T06:50:38.168Z,1002.2
2016-05-12T06:51:38.246Z,1002.23
2016-05-12T06:52:38.322Z,1002.24
2016-05-12T06:53:38.399Z,1002.23
2016-05-12T06:54:38.492Z,1002.23
2016-05-12T06:55:38.541Z,1002.21
2016-05-12T06:56:38.607Z,1002.22
2016-05-12T06:57:38.655Z,1002.16
2016-05-12T06:58:38.705Z,1002.21
2016-05-12T06:59:38.754Z,1002.2
2016-05-12T07:00:38.809Z,1002.22
2016-05-12T07:01:38.849Z,1002.18
2016-05-12T07:02:38.903Z,1002.18
2016-05-12T07:03:38.943Z,1002.18
2016-05-12T07:04:38.997Z,1002.2
2016-05-12T07:05:39.018Z,1002.16
2016-05-12T07:06:39.069Z,1002.13
2016-05-12T07:07:39.106Z,1002.17
2016-05-12T07:08:39.141Z,1002.17
2016-05-12T07:09:39.193Z,1002.14
2016-05-12T07:10:39.244Z,1002.14
2016-05-12T07:11:39.262Z,1002.1
2016-05-12T07:12:39.312Z,1002.09
2016-05-12T07:13:39.346Z,1002.11
2016-05-12T07:14:39.397Z,1002.08
2016-05-12T07:15:39.432Z,1002.12
2016-05-12T07:16:39.466Z,1002.04
2016-05-12T07:17:39.516Z,1002.05
2016-05-12T07:18:39.550Z,1002.05
2016-05-12T07:19:39.584Z,1002.06
2016-05-12T07:20:39.634Z,1002.01
2016-05-12T07:21:39.667Z,1002.06
2016-05-12T07:22:39.717Z,1002.03
2016-05-12T07:23:39.751Z,1002.03
2016-05-12T07:24:39.786Z,1002.03
2016-05-12T07:25:39.820Z,1002
2016-05-12T07:26:39.869Z,1002.01
2016-05-12T07:27:39.902Z,1002.03
2016-05-12T07:28:39.937Z,1002.01
2016-05-12T07:29:39.986Z,1002.01
2016-05-12T07:30:40.020Z,1002.03
2016-05-12T07:31:40.195Z,1001.98
2016-05-12T07:32:40.104Z,1002.01
2016-05-12T07:33:40.138Z,1002
2016-05-12T07:34:40.188Z,1001.98
2016-05-12T07:35:40.221Z,1002.01
2016-05-12T07:36:40.255Z,1001.97
2016-05-12T07:37:40.305Z,1002
2016-05-12T07:38:40.338Z,1001.97
2016-05-12T07:39:40.373Z,1002
2016-05-12T07:40:40.422Z,1001.98
2016-05-12T07:41:40.457Z,1002.02
2016-05-12T07:42:40.506Z,1002
2016-05-12T07:43:40.540Z,1001.93
2016-05-12T07:44:40.573Z,1001.97
2016-05-12T07:45:40.624Z,1002
2016-05-12T07:46:40.657Z,1001.92
2016-05-12T07:47:40.691Z,1001.98
2016-05-12T07:48:40.740Z,1001.94
2016-05-12T07:49:40.775Z,1001.94
2016-05-12T07:50:40.809Z,1002
2016-05-12T07:51:40.858Z,1001.93
2016-05-12T07:52:40.893Z,1001.99
2016-05-12T07:53:40.926Z,1001.94
2016-05-12T07:54:40.976Z,1001.88
2016-05-12T07:55:41.009Z,1001.88
2016-05-12T07:56:41.044Z,1001.91
2016-05-12T07:57:41.093Z,1001.87
2016-05-12T07:58:41.127Z,1001.87
2016-05-12T07:59:41.177Z,1001.85
2016-05-12T08:00:41.210Z,1001.83
2016-05-12T08:01:41.244Z,1001.86
2016-05-12T08:02:41.294Z,1001.87
2016-05-12T08:03:41.328Z,1001.85
2016-05-12T08:04:41.361Z,1001.82
2016-05-12T08:05:41.411Z,1001.85
2016-05-12T08:06:41.446Z,1001.77
2016-05-12T08:07:41.480Z,1001.77
2016-05-12T08:08:41.529Z,1001.82
2016-05-12T08:09:41.562Z,1001.78
2016-05-12T08:10:41.597Z,1001.79
2016-05-12T08:11:41.647Z,1001.76
2016-05-12T08:12:41.680Z,1001.82
2016-05-12T08:13:41.715Z,1001.77
2016-05-12T08:14:41.763Z,1001.76
2016-05-12T08:15:41.798Z,1001.79
2016-05-12T08:16:42.066Z,1001.74
2016-05-12T08:17:41.881Z,1001.77
2016-05-12T08:18:41.916Z,1001.66
2016-05-12T08:19:41.949Z,1001.66
2016-05-12T08:20:41.998Z,1001.65
2016-05-12T08:21:42.033Z,1001.66
2016-05-12T08:22:42.067Z,1001.66
2016-05-12T08:23:42.116Z,1001.67
2016-05-12T08:24:42.150Z,1001.62
2016-05-12T08:25:42.184Z,1001.54
2016-05-12T08:26:42.233Z,1001.62
2016-05-12T08:27:42.267Z,1001.66
2016-05-12T08:28:42.317Z,1001.56
2016-05-12T08:29:42.350Z,1001.57
2016-05-12T08:30:42.385Z,1001.68
2016-05-12T08:31:42.434Z,1001.54
2016-05-12T08:32:42.469Z,1001.51
2016-05-12T08:33:42.503Z,1001.51
2016-05-12T08:34:42.553Z,1001.46
2016-05-12T08:35:42.586Z,1001.52
2016-05-12T08:36:42.620Z,1001.45
2016-05-12T08:37:42.669Z,1001.52
2016-05-12T08:38:42.703Z,1001.45
2016-05-12T08:39:42.753Z,1001.48
2016-05-12T08:40:42.787Z,1001.45
2016-05-12T08:41:42.836Z,1001.44
2016-05-12T08:42:42.854Z,1001.42
2016-05-12T08:43:42.904Z,1001.44
2016-05-12T08:44:42.938Z,1001.42
2016-05-12T08:45:42.988Z,1001.47
2016-05-12T08:46:43.021Z,1001.45
2016-05-12T08:47:43.056Z,1001.44
2016-05-12T08:48:43.105Z,1001.49
2016-05-12T08:49:43.139Z,1001.47
2016-05-12T08:50:43.173Z,1001.47
2016-05-12T08:51:43.223Z,1001.43
2016-05-12T08:52:43.256Z,1001.37
2016-05-12T08:53:43.290Z,1001.39
2016-05-12T08:54:43.356Z,1001.42
2016-05-12T08:55:43.373Z,1001.4
2016-05-12T08:56:43.424Z,1001.53
2016-05-12T08:57:43.458Z,1001.33
2016-05-12T08:58:43.506Z,1001.35
2016-05-12T08:59:43.542Z,1001.4
2016-05-12T09:00:43.575Z,1001.4
2016-05-12T09:01:43.764Z,1001.37
2016-05-12T09:02:43.675Z,1001.39
2016-05-12T09:03:43.708Z,1001.29
2016-05-12T09:04:43.742Z,1001.27
2016-05-12T09:05:43.775Z,1001.31
2016-05-12T09:06:44.560Z,1001.32
2016-05-12T09:07:43.860Z,1001.31
2016-05-12T09:08:43.893Z,1001.33
2016-05-12T09:09:43.943Z,1001.32
2016-05-12T09:10:43.977Z,1001.26
2016-05-12T09:11:44.011Z,1001.21
2016-05-12T09:12:44.060Z,1001.29
2016-05-12T09:13:44.094Z,1001.2
2016-05-12T09:14:44.143Z,1001.26
2016-05-12T09:15:44.178Z,1001.14
2016-05-12T09:16:44.227Z,1001.15
2016-05-12T09:17:44.262Z,1001.21
2016-05-12T09:18:44.296Z,1001.26
2016-05-12T09:19:44.345Z,1001.27
2016-05-12T09:20:44.379Z,1001.44
2016-05-12T09:21:44.413Z,1001.2
2016-05-12T09:22:44.462Z,1001.13
2016-05-12T09:23:44.496Z,1001.18
2016-05-12T09:24:44.545Z,1001.1
2016-05-12T09:25:44.579Z,1001.14
2016-05-12T09:26:44.629Z,1001.12
2016-05-12T09:27:44.663Z,1001.06
2016-05-12T09:28:44.697Z,1001.07
2016-05-12T09:29:44.747Z,1001.1
2016-05-12T09:30:44.781Z,1001.07
2016-05-12T09:31:45.017Z,1001.11
2016-05-12T09:32:44.864Z,1001.09
2016-05-12T09:33:44.898Z,1001.09
2016-05-12T09:34:44.947Z,1001.02
2016-05-12T09:35:44.981Z,1001.03
2016-05-12T09:36:45.031Z,1001.04
2016-05-12T09:37:45.066Z,1001.03
2016-05-12T09:38:45.099Z,1001.01
2016-05-12T09:39:45.164Z,1000.9
2016-05-12T09:40:45.199Z,1000.95
2016-05-12T09:41:45.232Z,1000.9
2016-05-12T09:42:45.282Z,1001.01
2016-05-12T09:43:45.315Z,1000.94
2016-05-12T09:44:45.349Z,1000.88
2016-05-12T09:45:45.383Z,1000.8
2016-05-12T09:46:45.432Z,1000.81
2016-05-12T09:47:45.468Z,1000.83
2016-05-12T09:48:45.516Z,1000.79
2016-05-12T09:49:45.551Z,1000.81
2016-05-12T09:50:45.601Z,1000.86
2016-05-12T09:51:45.634Z,1000.86
2016-05-12T09:52:45.668Z,1000.8
2016-05-12T09:53:45.717Z,1000.76
2016-05-12T09:54:45.751Z,1000.74
2016-05-12T09:55:45.801Z,1000.74
2016-05-12T09:56:45.835Z,1000.72
2016-05-12T09:57:45.884Z,1000.85
2016-05-12T09:58:45.918Z,1000.74
2016-05-12T09:59:45.952Z,1000.65
2016-05-12T10:00:46.002Z,1000.73
2016-05-12T10:01:46.036Z,1000.71
2016-05-12T10:02:46.085Z,1000.68
2016-05-12T10:03:46.120Z,1000.66
2016-05-12T10:04:46.170Z,1000.72
2016-05-12T10:05:46.203Z,1000.7
2016-05-12T10:06:46.237Z,1000.7
2016-05-12T10:07:46.286Z,1000.7
2016-05-12T10:08:46.320Z,1000.61
2016-05-12T10:09:46.370Z,1000.67
2016-05-12T10:10:46.404Z,1000.6
2016-05-12T10:11:46.453Z,1000.55
2016-05-12T10:12:46.487Z,1000.49
2016-05-12T10:13:46.537Z,1000.42
2016-05-12T10:14:46.571Z,1000.44
2016-05-12T10:15:46.604Z,1000.44
2016-05-12T10:16:46.654Z,1000.45
2016-05-12T10:17:46.688Z,1000.42
2016-05-12T10:18:46.738Z,1000.41
2016-05-12T10:19:46.772Z,1000.36
2016-05-12T10:20:46.821Z,1000.4
2016-05-12T10:21:46.855Z,1000.43
2016-05-12T10:22:46.889Z,1000.43
2016-05-12T10:23:46.940Z,1000.36
2016-05-12T10:24:46.988Z,1000.35
2016-05-12T10:25:47.038Z,1000.45
2016-05-12T10:26:47.056Z,1000.38
2016-05-12T10:27:47.090Z,1000.4
2016-05-12T10:28:47.140Z,1000.37
2016-05-12T10:29:47.173Z,1000.37
2016-05-12T10:30:47.223Z,1000.34
2016-05-12T10:31:47.428Z,1000.34
2016-05-12T10:32:47.306Z,1000.28
2016-05-12T10:33:47.342Z,1000.2
2016-05-12T10:34:47.389Z,1000.17
2016-05-12T10:35:47.424Z,1000.13
2016-05-12T10:36:47.458Z,1000.09
2016-05-12T10:37:47.508Z,1000.09
2016-05-12T10:38:47.542Z,1000.08
2016-05-12T10:39:47.591Z,1000.2
2016-05-12T10:40:47.625Z,1000.17
2016-05-12T10:41:47.674Z,1000.07
2016-05-12T10:42:47.708Z,1000.16
2016-05-12T10:43:47.743Z,1000.1
2016-05-12T10:44:47.792Z,1000.19
2016-05-12T10:45:47.826Z,1000.05
2016-05-12T10:46:47.876Z,1000.11
2016-05-12T10:47:47.910Z,1000.13
2016-05-12T10:48:47.960Z,1000.02
2016-05-12T10:49:47.993Z,1000.06
2016-05-12T10:50:48.026Z,1000.05
2016-05-12T10:51:48.077Z,1000.01
2016-05-12T10:52:48.111Z,1000.04
2016-05-12T10:53:48.160Z,999.96
2016-05-12T10:54:48.194Z,999.98
2016-05-12T10:55:48.243Z,999.91
2016-05-12T10:56:48.278Z,999.82
2016-05-12T10:57:48.327Z,999.87
2016-05-12T10:58:48.362Z,999.92
2016-05-12T10:59:48.395Z,999.95
2016-05-12T11:00:48.459Z,999.94
2016-05-12T11:01:48.478Z,999.94
2016-05-12T11:02:48.529Z,999.82
2016-05-12T11:03:48.561Z,999.87
2016-05-12T11:04:48.611Z,999.9
2016-05-12T11:05:48.645Z,999.87
2016-05-12T11:06:48.695Z,999.84
2016-05-12T11:07:48.729Z,1000
2016-05-12T11:08:48.764Z,999.89
2016-05-12T11:09:48.812Z,999.86
2016-05-12T11:10:48.847Z,999.78
2016-05-12T11:11:48.897Z,999.78
2016-05-12T11:12:48.946Z,999.74
2016-05-12T11:13:48.980Z,999.78
2016-05-12T11:14:49.013Z,999.74
2016-05-12T11:15:49.063Z,999.72
2016-05-12T11:16:49.285Z,999.78
2016-05-12T11:17:49.146Z,999.68
2016-05-12T11:18:49.180Z,999.61
2016-05-12T11:19:49.230Z,999.61
2016-05-12T11:20:49.263Z,999.65
2016-05-12T11:21:49.329Z,999.72
2016-05-12T11:22:49.348Z,999.65
2016-05-12T11:23:49.381Z,999.63
2016-05-12T11:24:49.431Z,999.67
2016-05-12T11:25:49.465Z,999.63
2016-05-12T11:26:49.515Z,999.62
2016-05-12T11:27:49.548Z,999.58
2016-05-12T11:28:49.598Z,999.58
2016-05-12T11:29:49.632Z,999.5
2016-05-12T11:30:49.682Z,999.52
2016-05-12T11:31:49.840Z,999.59
2016-05-12T11:32:49.764Z,999.48
2016-05-12T11:33:49.799Z,999.47
2016-05-12T11:34:49.848Z,999.43
2016-05-12T11:35:49.882Z,999.44
2016-05-12T11:36:49.917Z,999.44
2016-05-12T11:37:49.966Z,999.39
2016-05-12T11:38:50.000Z,999.43
2016-05-12T11:39:50.049Z,999.37
2016-05-12T11:40:50.084Z,999.41
2016-05-12T11:41:50.133Z,999.42
2016-05-12T11:42:50.182Z,999.4
2016-05-12T11:43:50.217Z,999.38
2016-05-12T11:44:50.250Z,999.39
2016-05-12T11:45:50.300Z,999.43
2016-05-12T11:46:50.334Z,999.44
2016-05-12T11:47:50.383Z,999.42
2016-05-12T11:48:50.418Z,999.4
2016-05-12T11:49:50.466Z,999.37
2016-05-12T11:50:50.502Z,999.38
2016-05-12T11:51:50.551Z,999.36
2016-05-12T11:52:50.584Z,999.37
2016-05-12T11:53:50.618Z,999.44
2016-05-12T11:54:50.668Z,999.4
2016-05-12T11:55:50.718Z,999.43
2016-05-12T11:56:50.751Z,999.36
2016-05-12T11:57:50.785Z,999.36
2016-05-12T11:58:50.835Z,999.27
2016-05-12T11:59:50.868Z,999.25
2016-05-12T12:00:50.918Z,999.19
2016-05-12T12:01:50.953Z,999.21
2016-05-12T12:02:51.002Z,999.15
2016-05-12T12:03:51.037Z,999.16
2016-05-12T12:04:51.101Z,999.17
2016-05-12T12:05:51.119Z,999.19
2016-05-12T12:06:51.169Z,999.18
2016-05-12T12:07:51.203Z,999.17
2016-05-12T12:08:51.252Z,999.16
2016-05-12T12:09:51.287Z,999.16
2016-05-12T12:10:51.336Z,999.21
2016-05-12T12:11:51.385Z,999.16